Shelton, Connecticut
Current Conditions -  °F | °C
As of 12:52 PM on Friday 19 Dec 2014 (Local Time) from KBDR Reporting Station
Broken Clouds Broken Clouds  
Wind Chill:   Ceiling: 5000
Heat Index:   Visibility: 10mi
Dew Point: -6°   Wind: 8mph
Humidity: 47%   Direction: 330°NNW
Pressure: 29.99"   Gusts: NA
Location:  41.32°N, 73.11°W
Report Text: KBDR 191752Z 33007KT 10SM FEW041 BKN050 05/M06 A2999 RMK AO2 SLP156 T00501056 10056 20022 56014
Loading
Personal Weather Stations






























Interactive Weather Map New forecast layout! Learn more

10-Day Weather Forecast

Advertisements
Track Severe Weather on mobile